AKL weather

Auckland International Airport
Auckland, Auckland Region, New Zealand

Public forecast

Using degrees Celsius for public forecast. Weather courtesy of forecast.io.

METAR (pilot weather report)

Retrieved 2019/03/20 06:30 UTC (22 minutes ago):

NZAA 200630Z AUTO 23008KT 9999 BKN037/// 21/15 Q1023 NOSIG

TAF (pilot weather forecast)

Retrieved 2019/03/20 06:18 UTC (34 minutes ago):

TAF NZAA 200513Z 2006/2106 22010KT 9999 BKN030 BECMG 2007/2009 12005KT BECMG 2023/2101 24010KT